createdAt,value
2023-04-10T00:01:48.608Z,18.95
2023-04-10T00:06:11.037Z,22.67
2023-04-10T00:10:33.557Z,21.65
2023-04-10T00:14:55.871Z,22.88
2023-04-10T00:19:18.040Z,21.70
2023-04-10T00:23:39.984Z,21.48
2023-04-10T00:28:02.109Z,23.00
2023-04-10T00:32:24.543Z,17.13
2023-04-10T00:36:49.847Z,19.13
2023-04-10T00:41:12.166Z,21.02
2023-04-10T00:45:34.262Z,20.20
2023-04-10T00:49:56.586Z,24.85
2023-04-10T00:54:18.945Z,22.02
2023-04-10T00:58:41.086Z,23.25
2023-04-10T01:03:03.734Z,22.73
2023-04-10T01:08:02.984Z,20.67
2023-04-10T01:12:47.647Z,19.30
2023-04-10T01:17:45.734Z,16.90
2023-04-10T01:22:12.029Z,19.10
2023-04-10T01:27:01.868Z,24.17
2023-04-10T01:31:51.444Z,15.48
2023-04-10T01:36:18.522Z,19.50
2023-04-10T01:40:48.926Z,19.65
2023-04-10T01:45:20.123Z,16.63
2023-04-10T01:49:49.605Z,18.85
2023-04-10T01:54:13.003Z,20.13
2023-04-10T01:58:36.991Z,18.02
2023-04-10T02:02:59.779Z,20.00
2023-04-10T02:07:50.236Z,21.75
2023-04-10T02:12:22.550Z,18.30
2023-04-10T02:16:45.098Z,21.58
2023-04-10T02:21:08.225Z,17.80
2023-04-10T02:25:34.420Z,17.70
2023-04-10T02:29:56.964Z,21.50
2023-04-10T02:34:19.428Z,22.55
2023-04-10T02:38:41.765Z,16.67
2023-04-10T02:43:05.686Z,16.90
2023-04-10T02:47:27.792Z,19.08
2023-04-10T02:51:50.165Z,18.88
2023-04-10T02:56:12.835Z,19.77
2023-04-10T03:00:34.849Z,19.17
2023-04-10T03:05:09.111Z,20.83
2023-04-10T03:09:31.606Z,17.23
2023-04-10T03:13:53.987Z,14.68
2023-04-10T03:18:16.422Z,17.85
2023-04-10T03:22:41.185Z,20.00
2023-04-10T03:27:04.886Z,17.25
2023-04-10T03:31:27.871Z,16.00
2023-04-10T03:35:53.951Z,17.27
2023-04-10T03:40:16.328Z,15.05
2023-04-10T03:44:38.929Z,27.58
2023-04-10T03:49:01.959Z,18.63
2023-04-10T03:53:26.018Z,18.80
2023-04-10T03:57:49.783Z,16.83
2023-04-10T04:02:14.097Z,19.40
2023-04-10T04:06:38.004Z,15.90
2023-04-10T04:11:19.424Z,16.23
2023-04-10T04:15:57.751Z,18.25
2023-04-10T04:20:42.863Z,19.92
2023-04-10T04:25:11.799Z,18.65
2023-04-10T04:30:10.843Z,18.13
2023-04-10T04:34:51.444Z,17.40
2023-04-10T04:39:39.821Z,15.95
2023-04-10T04:44:02.628Z,20.42
2023-04-10T04:48:47.664Z,21.80
2023-04-10T04:53:19.255Z,21.58
2023-04-10T04:58:01.440Z,26.40
2023-04-10T05:02:43.844Z,19.60
2023-04-10T05:07:27.602Z,22.45
2023-04-10T05:12:10.205Z,22.88
2023-04-10T05:16:54.926Z,21.30
2023-04-10T05:21:38.380Z,19.08
2023-04-10T05:26:19.262Z,27.00
2023-04-10T05:31:03.699Z,29.58
2023-04-10T05:36:00.935Z,32.58
2023-04-10T05:40:48.245Z,40.90
2023-04-10T05:45:32.228Z,31.85
2023-04-10T05:49:57.190Z,33.47
2023-04-10T05:54:37.909Z,26.10
2023-04-10T05:59:19.824Z,21.45
2023-04-10T06:03:53.984Z,22.90
2023-04-10T06:08:16.746Z,24.90
2023-04-10T06:12:39.163Z,21.15
2023-04-10T06:17:03.782Z,20.33
2023-04-10T06:21:26.605Z,20.20
2023-04-10T06:25:48.690Z,20.00
2023-04-10T06:30:11.443Z,20.60
2023-04-10T06:34:33.464Z,20.60
2023-04-10T06:38:59.247Z,20.80
2023-04-10T06:43:21.687Z,20.00
2023-04-10T06:47:44.392Z,19.23
2023-04-10T06:52:07.047Z,18.08
2023-04-10T06:56:29.165Z,18.88
2023-04-10T07:00:51.301Z,18.08
2023-04-10T07:05:14.306Z,19.13
2023-04-10T07:09:36.407Z,17.02
2023-04-10T07:13:58.706Z,20.15
2023-04-10T07:18:20.786Z,18.38
2023-04-10T07:22:42.747Z,16.67
2023-04-10T07:27:05.111Z,17.77
2023-04-10T07:31:27.512Z,18.92
2023-04-10T07:35:49.906Z,16.65
2023-04-10T07:40:12.482Z,18.48
2023-04-10T07:44:34.546Z,16.90
2023-04-10T07:48:56.798Z,17.83
2023-04-10T07:53:19.068Z,17.23
2023-04-10T07:57:42.209Z,17.05
2023-04-10T08:02:04.698Z,16.00
2023-04-10T08:06:27.147Z,17.30
2023-04-10T08:10:49.543Z,16.75
2023-04-10T08:15:11.866Z,16.60
2023-04-10T08:19:34.059Z,17.67
2023-04-10T08:24:02.628Z,14.35
2023-04-10T08:28:24.779Z,14.02
2023-04-10T08:32:46.853Z,15.70
2023-04-10T08:37:12.374Z,16.67
2023-04-10T08:41:34.732Z,18.13
2023-04-10T08:45:56.817Z,15.35
2023-04-10T08:50:20.053Z,16.70
2023-04-10T08:54:44.026Z,15.57
2023-04-10T08:59:08.016Z,15.68
2023-04-10T09:03:30.145Z,14.40
2023-04-10T09:07:52.364Z,15.40
2023-04-10T09:12:15.766Z,15.77
2023-04-10T09:16:37.583Z,12.35
2023-04-10T09:21:08.541Z,13.20
2023-04-10T09:25:39.009Z,11.00
2023-04-10T09:30:02.261Z,13.13
2023-04-10T09:34:24.460Z,13.50
2023-04-10T09:38:52.343Z,14.48
2023-04-10T09:43:26.514Z,16.10
2023-04-10T09:48:04.452Z,14.43
2023-04-10T09:52:38.421Z,15.82
2023-04-10T09:57:01.669Z,14.23
2023-04-10T10:01:24.522Z,15.10
2023-04-10T10:05:50.249Z,14.75
2023-04-10T10:10:12.996Z,14.00
2023-04-10T10:14:42.293Z,14.32
2023-04-10T10:19:21.201Z,12.95
2023-04-10T10:23:44.504Z,14.43
2023-04-10T10:28:06.861Z,12.45
2023-04-10T10:32:30.877Z,10.57
2023-04-10T10:36:53.429Z,10.60
2023-04-10T10:41:35.873Z,12.80
2023-04-10T10:46:13.099Z,11.32
2023-04-10T10:50:57.614Z,12.45
2023-04-10T10:55:23.125Z,10.75
2023-04-10T10:59:47.654Z,12.65
2023-04-10T11:04:45.243Z,12.57
2023-04-10T11:09:07.284Z,13.13
2023-04-10T11:13:29.564Z,11.32
2023-04-10T11:17:54.617Z,9.50
2023-04-10T11:22:16.823Z,10.70
2023-04-10T11:26:43.491Z,9.02
2023-04-10T11:31:24.304Z,8.13
2023-04-10T11:35:47.209Z,10.15
2023-04-10T11:40:09.676Z,9.27
2023-04-10T11:44:39.629Z,10.32
2023-04-10T11:49:05.196Z,8.57
2023-04-10T11:53:27.476Z,9.18
2023-04-10T11:57:49.477Z,11.15
2023-04-10T12:02:15.449Z,13.68
2023-04-10T12:06:37.775Z,10.10
2023-04-10T12:11:01.109Z,10.10
2023-04-10T12:15:30.965Z,12.13
2023-04-10T12:19:53.224Z,10.80
2023-04-10T12:24:49.195Z,16.08
2023-04-10T12:29:11.423Z,12.30
2023-04-10T12:33:33.718Z,11.00
2023-04-10T12:37:55.730Z,10.18
2023-04-10T12:42:21.187Z,9.43
2023-04-10T12:46:44.695Z,9.38
2023-04-10T12:51:07.310Z,10.70
2023-04-10T12:55:29.485Z,8.85
2023-04-10T12:59:52.049Z,10.25
2023-04-10T13:04:14.061Z,10.48
2023-04-10T13:08:36.613Z,9.75
2023-04-10T13:12:58.960Z,11.18
2023-04-10T13:17:22.095Z,9.95
2023-04-10T13:21:44.228Z,9.77
2023-04-10T13:26:06.737Z,9.15
2023-04-10T13:30:29.579Z,11.07
2023-04-10T13:34:51.883Z,9.40
2023-04-10T13:39:13.607Z,10.50
2023-04-10T13:43:36.868Z,11.82
2023-04-10T13:47:59.052Z,12.30
2023-04-10T13:52:21.262Z,10.88
2023-04-10T13:56:44.661Z,10.93
2023-04-10T14:01:07.004Z,11.20
2023-04-10T14:05:29.152Z,10.77
2023-04-10T14:09:51.164Z,12.27
2023-04-10T14:14:13.159Z,11.25
2023-04-10T14:18:37.423Z,10.52
2023-04-10T14:22:59.212Z,10.85
2023-04-10T14:27:21.961Z,10.18
2023-04-10T14:31:56.701Z,11.82
2023-04-10T14:36:19.797Z,11.23
2023-04-10T14:40:42.412Z,9.63
2023-04-10T14:45:06.378Z,12.02
2023-04-10T14:49:28.403Z,11.30
2023-04-10T14:53:50.799Z,10.95
2023-04-10T14:58:12.903Z,11.43
2023-04-10T15:02:35.078Z,12.15
2023-04-10T15:06:57.031Z,11.50
2023-04-10T15:11:19.101Z,11.02
2023-04-10T15:15:41.462Z,9.90
2023-04-10T15:20:05.264Z,11.95
2023-04-10T15:24:29.164Z,7.50
2023-04-10T15:28:53.311Z,10.10
2023-04-10T15:33:15.857Z,13.50
2023-04-10T15:37:38.441Z,10.55
2023-04-10T15:42:02.456Z,13.75
2023-04-10T15:46:26.049Z,14.82
2023-04-10T15:50:48.628Z,10.65
2023-04-10T15:55:10.883Z,10.95
2023-04-10T15:59:33.844Z,10.10
2023-04-10T16:03:56.546Z,10.55
2023-04-10T16:08:19.078Z,12.90
2023-04-10T16:12:41.683Z,10.30
2023-04-10T16:17:03.745Z,11.70
2023-04-10T16:21:26.931Z,9.70
2023-04-10T16:25:49.058Z,12.45
2023-04-10T16:30:12.027Z,10.77
2023-04-10T16:34:35.019Z,9.82
2023-04-10T16:38:57.384Z,10.10
2023-04-10T16:43:19.446Z,10.25
2023-04-10T16:47:42.345Z,11.32
2023-04-10T16:52:04.396Z,13.10
2023-04-10T16:56:27.161Z,11.48
2023-04-10T17:00:49.364Z,10.23
2023-04-10T17:05:13.720Z,12.52
2023-04-10T17:09:36.120Z,12.23
2023-04-10T17:13:58.226Z,10.73
2023-04-10T17:18:21.817Z,10.73
2023-04-10T17:22:43.964Z,11.95
2023-04-10T17:27:05.953Z,13.30
2023-04-10T17:31:28.752Z,13.95
2023-04-10T17:35:52.256Z,13.05
2023-04-10T17:40:14.148Z,15.05
2023-04-10T17:44:36.626Z,16.33
2023-04-10T17:49:01.664Z,14.68
2023-04-10T17:53:24.343Z,13.20
2023-04-10T17:57:46.520Z,12.60
2023-04-10T18:02:08.927Z,13.52
2023-04-10T18:06:31.904Z,13.07
2023-04-10T18:10:54.018Z,14.45
2023-04-10T18:15:16.133Z,13.55
2023-04-10T18:19:38.200Z,13.10
2023-04-10T18:24:00.516Z,12.27
2023-04-10T18:28:23.545Z,12.82
2023-04-10T18:32:46.331Z,13.88
2023-04-10T18:37:10.059Z,13.82
2023-04-10T18:41:32.764Z,14.45
2023-04-10T18:45:55.435Z,13.88
2023-04-10T18:50:17.642Z,13.70
2023-04-10T18:54:39.962Z,14.73
2023-04-10T18:59:02.200Z,15.35
2023-04-10T19:03:24.161Z,16.73
2023-04-10T19:07:56.646Z,17.02
2023-04-10T19:12:25.882Z,15.82
2023-04-10T19:16:48.118Z,18.23
2023-04-10T19:21:10.020Z,16.13
2023-04-10T19:25:33.433Z,17.30
2023-04-10T19:29:55.497Z,17.25
2023-04-10T19:34:17.577Z,15.10
2023-04-10T19:38:41.129Z,16.58
2023-04-10T19:43:03.278Z,16.48
2023-04-10T19:47:25.219Z,15.63
2023-04-10T19:51:46.983Z,15.02
2023-04-10T19:56:09.489Z,19.42
2023-04-10T20:00:32.197Z,18.60
2023-04-10T20:04:54.147Z,17.98
2023-04-10T20:09:16.821Z,17.55
2023-04-10T20:13:40.284Z,16.58
2023-04-10T20:18:02.328Z,17.52
2023-04-10T20:22:24.633Z,17.80
2023-04-10T20:26:46.554Z,16.25
2023-04-10T20:31:11.162Z,17.08
2023-04-10T20:35:32.888Z,16.63
2023-04-10T20:39:54.980Z,14.85
2023-04-10T20:44:17.274Z,15.15
2023-04-10T20:48:39.478Z,15.10
2023-04-10T20:53:01.431Z,14.10
2023-04-10T20:57:24.049Z,14.48
2023-04-10T21:01:46.312Z,14.73
2023-04-10T21:06:09.539Z,16.13
2023-04-10T21:10:31.530Z,13.50
2023-04-10T21:14:53.322Z,13.68
2023-04-10T21:19:15.164Z,13.75
2023-04-10T21:23:37.264Z,12.82
2023-04-10T21:28:00.640Z,14.52
2023-04-10T21:32:22.627Z,13.35
2023-04-10T21:36:44.465Z,14.93
2023-04-10T21:41:07.198Z,13.60
2023-04-10T21:45:34.796Z,14.13
2023-04-10T21:49:57.053Z,14.52
2023-04-10T21:54:19.341Z,13.32
2023-04-10T21:58:41.437Z,14.50
2023-04-10T22:03:03.731Z,13.73
2023-04-10T22:07:25.829Z,13.48
2023-04-10T22:11:47.578Z,13.18
2023-04-10T22:16:09.863Z,13.23
2023-04-10T22:20:31.880Z,12.77
2023-04-10T22:24:54.103Z,13.40
2023-04-10T22:29:16.543Z,13.02
2023-04-10T22:33:38.780Z,13.98
2023-04-10T22:38:03.746Z,13.45
2023-04-10T22:42:25.522Z,13.77
2023-04-10T22:46:48.499Z,12.13
2023-04-10T22:51:12.021Z,13.60
2023-04-10T22:55:34.211Z,14.00
2023-04-10T22:59:57.003Z,12.55
2023-04-10T23:04:20.587Z,13.25
2023-04-10T23:08:42.781Z,13.50
2023-04-10T23:13:04.820Z,13.80
2023-04-10T23:17:27.110Z,11.75
2023-04-10T23:21:49.414Z,13.82
2023-04-10T23:26:11.790Z,13.98
2023-04-10T23:30:33.542Z,13.00
2023-04-10T23:34:55.540Z,13.13
2023-04-10T23:39:17.226Z,13.35
2023-04-10T23:43:39.304Z,12.75
2023-04-10T23:48:01.321Z,11.98
2023-04-10T23:52:23.383Z,11.68
2023-04-10T23:56:45.821Z,12.48
